Terminal Aerodrome Forecast
Issued by NWS

Home | Current Version | Previous Version | Text Only | Print | Product List | Glossary On
Versions: 1 2 3 4 5 6 7 8 9 10 11 12 13 14 15 16 17 18
958
FTAK31 PAJN 042322
TAFAYA
TAF
PAYA 042322Z 0500/0524 13010KT P6SM VCSH SCT025 BKN050 OVC080
      TEMPO 0500/0503 15010G18KT 6SM -SHRA BR BKN025 OVC050
     FM050300 13010KT P6SM -RA BKN025 OVC050
     FM050600 10008KT 5SM -RA BR BKN020 OVC035
     FM051200 VRB04KT P6SM VCSH BKN020 OVC035
     FM051900 10010KT 5SM -RA BR BKN015 OVC025
      AMD LTD TO CLD VIS AND WIND 0501/0509=

USA.gov is the U.S. government's official web portal to all federal, state and local government web resources and services.